Time;durP1;ratioP1;P1;durP2;ratioP2;P2;SDS_P1;SDS_P2;PMS_P1;PMS_P2;Temp;Humidity;BMP_temperature;BMP_pressure;BME280_temperature;BME280_humidity;BME280_pressure;Samples;Min_cycle;Max_cycle;Signal;HPM_P1;HPM_P2
2023/11/09 00:01:45;;;;;;;0.10;0.10;;;;;;;12.96;78.16;100167.91;5070092;28;20033;-79
2023/11/09 00:04:12;;;;;;;0.80;0.80;;;;;;;12.96;78.09;100173.22;5070458;28;20560;-79
2023/11/09 00:06:38;;;;;;;0.10;0.10;;;;;;;13.12;77.66;100173.41;5069627;28;20040;-79
2023/11/09 00:09:04;;;;;;;0.10;0.10;;;;;;;13.02;77.66;100165.00;5072157;28;20130;-79
2023/11/09 00:11:30;;;;;;;0.20;0.20;;;;;;;13.00;77.83;100172.16;5076779;28;20043;-78
2023/11/09 00:13:57;;;;;;;0.10;0.10;;;;;;;13.14;77.64;100162.75;5074165;28;20444;-79
2023/11/09 00:16:23;;;;;;;0.10;0.10;;;;;;;13.04;77.68;100164.91;5074683;28;20082;-80
2023/11/09 00:18:49;;;;;;;0.57;0.57;;;;;;;13.12;77.53;100157.47;5072904;28;20060;-80
2023/11/09 00:21:15;;;;;;;0.10;0.10;;;;;;;13.00;77.91;100152.69;5073799;28;20035;-79
2023/11/09 00:23:41;;;;;;;0.10;0.10;;;;;;;12.96;78.15;100143.97;5074183;28;20064;-79
2023/11/09 00:26:08;;;;;;;0.10;0.10;;;;;;;13.03;77.79;100148.06;5073789;28;20033;-79
2023/11/09 00:28:34;;;;;;;0.10;0.10;;;;;;;13.03;78.25;100141.91;5073871;28;20028;-80
2023/11/09 00:31:01;;;;;;;0.10;0.10;;;;;;;12.94;78.49;100140.50;5074215;28;20066;-80
2023/11/09 00:33:27;;;;;;;0.10;0.10;;;;;;;13.05;78.06;100134.75;5074997;28;20080;-79
2023/11/09 00:35:54;;;;;;;0.10;0.10;;;;;;;13.05;78.12;100132.94;5074749;28;20074;-78
2023/11/09 00:38:21;;;;;;;0.10;0.10;;;;;;;13.09;77.90;100131.00;5075209;28;20036;-79
2023/11/09 00:40:47;;;;;;;0.10;0.10;;;;;;;12.97;78.34;100127.06;5074802;28;20047;-79
2023/11/09 00:43:13;;;;;;;0.17;0.17;;;;;;;12.98;78.42;100119.97;5074130;28;20024;-79
2023/11/09 00:45:39;;;;;;;0.10;0.10;;;;;;;13.05;78.09;100119.63;5074929;28;20044;-78
2023/11/09 00:48:05;;;;;;;0.10;0.10;;;;;;;13.10;78.15;100127.44;5077183;28;21305;-79
2023/11/09 00:50:32;;;;;;;0.10;0.10;;;;;;;12.99;78.55;100117.22;5077584;28;20109;-79
2023/11/09 00:52:58;;;;;;;0.20;0.20;;;;;;;12.95;78.48;100107.66;5077404;28;20395;-79
2023/11/09 00:55:24;;;;;;;0.20;0.20;;;;;;;12.93;78.85;100104.19;5075876;28;20027;-79
2023/11/09 00:57:50;;;;;;;0.65;0.65;;;;;;;12.97;78.62;100104.94;5078159;28;20514;-79
2023/11/09 01:00:17;;;;;;;0.10;0.10;;;;;;;13.13;78.28;100100.69;5078611;28;20029;-80
2023/11/09 01:02:48;;;;;;;0.10;0.10;;;;;;;13.00;78.42;100094.19;5078525;28;20103;-80
2023/11/09 01:05:14;;;;;;;0.10;0.10;;;;;;;13.03;78.39;100094.03;5078387;28;20020;-80
2023/11/09 01:07:41;;;;;;;0.10;0.10;;;;;;;13.07;78.27;100095.63;5078810;28;20034;-79
2023/11/09 01:10:08;;;;;;;0.10;0.10;;;;;;;13.03;78.34;100099.34;5076639;28;20036;-79
2023/11/09 01:12:34;;;;;;;0.10;0.10;;;;;;;13.06;78.40;100085.91;5076789;28;20044;-79
2023/11/09 01:15:02;;;;;;;0.20;0.20;;;;;;;12.97;78.60;100095.16;5077284;28;20024;-79
2023/11/09 01:17:28;;;;;;;0.10;0.10;;;;;;;13.06;78.54;100093.88;5076457;28;20044;-80
2023/11/09 01:19:54;;;;;;;0.30;0.30;;;;;;;13.02;78.41;100097.63;5077638;28;20054;-79
2023/11/09 01:22:20;;;;;;;0.10;0.10;;;;;;;13.08;78.34;100105.34;5077017;28;20040;-79
2023/11/09 01:24:47;;;;;;;0.10;0.10;;;;;;;13.16;77.96;100108.56;5075599;28;20066;-79
2023/11/09 01:27:14;;;;;;;0.10;0.10;;;;;;;13.08;78.10;100102.69;5077864;28;20040;-78
2023/11/09 01:29:40;;;;;;;0.10;0.10;;;;;;;13.05;78.61;100113.47;5076901;28;20020;-78
2023/11/09 01:32:06;;;;;;;0.10;0.10;;;;;;;13.08;78.33;100110.66;5078099;28;20094;-78
2023/11/09 01:34:33;;;;;;;0.10;0.10;;;;;;;13.11;78.13;100122.03;5077230;28;20035;-79
2023/11/09 01:36:59;;;;;;;0.10;0.10;;;;;;;13.03;78.45;100113.50;5076602;28;20051;-79
2023/11/09 01:39:25;;;;;;;0.20;0.20;;;;;;;12.94;78.78;100119.22;5076752;28;20029;-79
2023/11/09 01:41:51;;;;;;;0.20;0.20;;;;;;;13.09;78.42;100120.38;5075700;28;20032;-79
2023/11/09 01:44:17;;;;;;;0.20;0.20;;;;;;;13.16;78.12;100099.69;5077542;28;20040;-79
2023/11/09 01:46:46;;;;;;;0.10;0.10;;;;;;;13.17;77.88;100096.09;5077113;28;20126;-79
2023/11/09 01:49:14;;;;;;;0.10;0.10;;;;;;;13.18;77.70;100081.88;5077108;28;20021;-79
2023/11/09 01:51:43;;;;;;;0.10;0.10;;;;;;;13.23;77.42;100059.47;5075990;28;20044;-79
2023/11/09 01:54:11;;;;;;;0.10;0.10;;;;;;;13.23;77.24;100047.97;5072113;28;20035;-79
2023/11/09 01:56:38;;;;;;;0.13;0.13;;;;;;;13.24;76.73;100071.81;5076955;28;20499;-78
2023/11/09 01:59:05;;;;;;;0.10;0.10;;;;;;;13.26;76.77;100074.44;5077092;28;20032;-79
2023/11/09 02:01:32;;;;;;;0.10;0.10;;;;;;;13.25;76.86;100078.88;5074717;28;20039;-79
2023/11/09 02:03:59;;;;;;;0.10;0.10;;;;;;;13.25;76.63;100078.88;5078022;28;20115;-79
2023/11/09 02:06:26;;;;;;;0.10;0.10;;;;;;;13.26;76.72;100085.94;5078204;28;20048;-79
2023/11/09 02:08:52;;;;;;;0.43;0.43;;;;;;;13.30;76.30;100085.81;5077742;28;20369;-79
2023/11/09 02:11:18;;;;;;;0.10;0.10;;;;;;;13.31;76.18;100091.06;5077990;28;20123;-79
2023/11/09 02:13:45;;;;;;;0.10;0.10;;;;;;;13.33;76.45;100086.53;5078413;28;20374;-80
2023/11/09 02:16:12;;;;;;;0.03;0.03;;;;;;;13.35;76.03;100075.84;5074461;28;20444;-80
2023/11/09 02:18:38;;;;;;;0.10;0.10;;;;;;;13.37;76.06;100087.25;5082810;28;20041;-78
2023/11/09 02:21:05;;;;;;;0.20;0.20;;;;;;;13.37;76.14;100087.25;5081814;28;20033;-79
2023/11/09 02:23:33;;;;;;;0.10;0.10;;;;;;;13.37;76.18;100097.91;5077124;28;20116;-79
2023/11/09 02:26:00;;;;;;;0.10;0.10;;;;;;;13.33;75.88;100101.63;5076888;28;20455;-79
2023/11/09 02:28:26;;;;;;;0.10;0.10;;;;;;;13.30;75.87;100099.97;5077996;28;20024;-78
2023/11/09 02:30:52;;;;;;;0.10;0.10;;;;;;;13.19;75.91;100087.13;5079163;28;20026;-79
2023/11/09 02:33:18;;;;;;;0.10;0.10;;;;;;;13.17;75.84;100088.13;5080519;28;20024;-79
2023/11/09 02:35:45;;;;;;;0.10;0.10;;;;;;;13.18;75.96;100076.56;5077645;28;20032;-79
2023/11/09 02:38:11;;;;;;;0.10;0.10;;;;;;;13.20;75.75;100069.38;5081847;28;20552;-79
2023/11/09 02:40:37;;;;;;;0.10;0.10;;;;;;;13.21;75.62;100065.81;5080334;28;20546;-79
2023/11/09 02:43:03;;;;;;;0.10;0.10;;;;;;;13.21;75.71;100077.28;5080618;28;20059;-80
2023/11/09 02:45:30;;;;;;;0.10;0.10;;;;;;;13.15;75.81;100072.25;5077716;28;20063;-79
2023/11/09 02:47:56;;;;;;;0.10;0.10;;;;;;;13.14;76.10;100069.66;5076741;28;20036;-79
2023/11/09 02:50:22;;;;;;;0.10;0.10;;;;;;;13.15;75.80;100074.91;5077329;28;20028;-80
2023/11/09 02:52:48;;;;;;;0.10;0.10;;;;;;;13.08;75.96;100074.31;5077794;28;20822;-79
2023/11/09 02:55:16;;;;;;;0.10;0.10;;;;;;;13.12;75.81;100061.72;5076303;28;20170;-80
2023/11/09 02:57:42;;;;;;;0.10;0.10;;;;;;;13.11;75.86;100060.00;5077161;28;20457;-79
2023/11/09 03:00:09;;;;;;;0.10;0.10;;;;;;;13.11;75.89;100070.66;5077033;28;20561;-80
2023/11/09 03:02:35;;;;;;;0.10;0.10;;;;;;;13.10;75.78;100069.78;5076777;28;20036;-79
2023/11/09 03:05:01;;;;;;;0.10;0.10;;;;;;;13.12;75.93;100077.69;5077669;28;20107;-79
2023/11/09 03:07:28;;;;;;;0.10;0.10;;;;;;;13.09;75.71;100077.81;5076109;28;20044;-80
2023/11/09 03:09:54;;;;;;;0.10;0.10;;;;;;;13.09;76.17;100086.66;5075330;28;20774;-80
2023/11/09 03:12:21;;;;;;;0.10;0.10;;;;;;;13.07;75.88;100091.19;5076784;28;20124;-79
2023/11/09 03:14:47;;;;;;;0.10;0.10;;;;;;;13.06;76.04;100093.88;5075717;28;20036;-79
2023/11/09 03:17:13;;;;;;;0.10;0.10;;;;;;;13.06;76.12;100093.88;5073602;28;20056;-80
2023/11/09 03:19:40;;;;;;;0.10;0.10;;;;;;;12.95;76.11;100095.22;5076067;28;20043;-79
2023/11/09 03:22:08;;;;;;;0.10;0.10;;;;;;;12.96;76.16;100088.13;5077251;28;20021;-78
2023/11/09 03:24:34;;;;;;;0.10;0.10;;;;;;;12.90;76.17;100086.56;5076580;28;20395;-79
2023/11/09 03:27:03;;;;;;;0.52;0.52;;;;;;;12.98;75.84;100094.22;5077003;28;20064;-78
2023/11/09 03:29:29;;;;;;;0.10;0.10;;;;;;;12.88;75.96;100080.44;5076230;28;20028;-78
2023/11/09 03:31:55;;;;;;;0.10;0.10;;;;;;;12.93;75.81;100078.47;5074999;28;20040;-79
2023/11/09 03:34:22;;;;;;;0.10;0.10;;;;;;;12.90;75.97;100091.88;5075570;28;20033;-79
2023/11/09 03:36:48;;;;;;;0.10;0.10;;;;;;;12.93;76.25;100083.81;5076512;28;20055;-79
2023/11/09 03:39:14;;;;;;;0.10;0.10;;;;;;;12.88;76.10;100087.56;5076054;28;20032;-78
2023/11/09 03:41:42;;;;;;;0.10;0.10;;;;;;;12.91;76.06;100090.09;5075210;28;20044;-78
2023/11/09 03:44:09;;;;;;;0.10;0.10;;;;;;;12.90;75.86;100086.56;5075203;28;20025;-78
2023/11/09 03:46:35;;;;;;;0.10;0.10;;;;;;;12.87;76.01;100092.03;5075099;28;20060;-77
2023/11/09 03:49:02;;;;;;;0.10;0.10;;;;;;;12.85;75.61;100087.72;5075027;28;20021;-79
2023/11/09 03:51:29;;;;;;;0.10;0.10;;;;;;;12.79;76.31;100086.16;5075664;28;20032;-79
2023/11/09 03:53:56;;;;;;;0.10;0.10;;;;;;;12.76;76.22;100096.91;5075666;28;20020;-80
2023/11/09 03:56:23;;;;;;;0.10;0.10;;;;;;;12.79;75.96;100088.81;5075873;28;20033;-80
2023/11/09 03:58:49;;;;;;;0.10;0.10;;;;;;;12.74;76.17;100088.16;5077939;28;20036;-78
2023/11/09 04:01:15;;;;;;;0.10;0.10;;;;;;;12.70;76.11;100091.88;5078529;28;20035;-80
2023/11/09 04:03:41;;;;;;;0.10;0.10;;;;;;;12.72;76.01;100097.97;5077901;28;20063;-79
2023/11/09 04:06:07;;;;;;;0.10;0.10;;;;;;;12.67;75.72;100102.59;5076198;28;20029;-78
2023/11/09 04:08:34;;;;;;;0.10;0.10;;;;;;;12.65;75.75;100105.34;5076698;28;20040;-79
2023/11/09 04:11:00;;;;;;;0.10;0.10;;;;;;;12.61;76.47;100109.03;5075170;28;20094;-79
2023/11/09 04:13:26;;;;;;;0.10;0.10;;;;;;;12.61;76.00;100114.34;5076850;28;20028;-79
2023/11/09 04:15:52;;;;;;;0.10;0.10;;;;;;;12.63;76.16;100115.16;5074490;28;20036;-78
2023/11/09 04:18:18;;;;;;;0.10;0.10;;;;;;;12.57;76.42;100123.38;5075372;28;20029;-79
2023/11/09 04:20:44;;;;;;;0.10;0.10;;;;;;;12.55;76.05;100099.53;5075127;28;20032;-79
2023/11/09 04:23:10;;;;;;;0.10;0.10;;;;;;;12.58;76.29;100112.66;5078071;28;20055;-79
2023/11/09 04:25:37;;;;;;;0.10;0.10;;;;;;;12.58;76.02;100110.00;5079199;28;20036;-79
2023/11/09 04:28:04;;;;;;;0.10;0.10;;;;;;;12.46;76.15;100110.50;5082947;28;20302;-77
2023/11/09 04:30:30;;;;;;;0.15;0.15;;;;;;;12.42;76.26;100112.44;5079329;28;20500;-79
2023/11/09 04:32:57;;;;;;;0.10;0.10;;;;;;;12.39;76.82;100112.53;5079654;28;20037;-79
2023/11/09 04:35:25;;;;;;;0.10;0.10;;;;;;;12.43;76.21;100107.97;5078195;28;20105;-78
2023/11/09 04:37:54;;;;;;;0.10;0.10;;;;;;;12.44;76.53;100107.06;5079534;28;20085;-80
2023/11/09 04:40:25;;;;;;;0.10;0.10;;;;;;;12.45;76.34;100104.34;5078768;28;20021;-79
2023/11/09 04:42:51;;;;;;;0.10;0.10;;;;;;;12.51;75.88;100113.88;5080046;28;20572;-79
2023/11/09 04:45:17;;;;;;;0.10;0.10;;;;;;;12.53;76.46;100112.00;5079588;28;20055;-78
2023/11/09 04:47:55;;;;;;;0.10;0.10;;;;;;;12.55;76.05;100114.63;5079104;28;20052;-77
2023/11/09 04:50:28;;;;;;;0.10;0.10;;;;;;;12.54;76.30;100102.25;5076642;28;20066;-79
2023/11/09 04:52:57;;;;;;;0.10;0.10;;;;;;;12.59;75.80;100100.28;5078489;28;20032;-79
2023/11/09 04:55:32;;;;;;;0.20;0.20;;;;;;;12.47;75.93;100096.28;5077434;28;20024;-79
2023/11/09 05:09:02;;;;;;;0.10;0.10;;;;;;;12.43;75.77;100121.25;5078483;28;20067;-78
2023/11/09 05:11:28;;;;;;;0.30;0.30;;;;;;;12.42;75.74;100125.72;5077957;28;20031;-79
2023/11/09 05:13:54;;;;;;;0.30;0.30;;;;;;;12.39;76.04;100119.66;5079084;28;20120;-79
2023/11/09 05:16:21;;;;;;;0.10;0.10;;;;;;;12.30;75.64;100121.75;5075449;28;20564;-79
2023/11/09 05:18:47;;;;;;;0.10;0.10;;;;;;;12.33;76.01;100114.59;5080331;28;20032;-79
2023/11/09 05:21:14;;;;;;;0.10;0.10;;;;;;;12.35;75.99;100118.91;5077184;28;20534;-79
2023/11/09 05:23:40;;;;;;;0.20;0.20;;;;;;;12.38;76.03;100117.94;5078799;28;20082;-78
2023/11/09 05:26:06;;;;;;;0.10;0.10;;;;;;;12.37;75.61;100121.50;5072257;28;20060;-78
2023/11/09 05:28:33;;;;;;;0.10;0.10;;;;;;;12.34;75.80;100125.16;5078451;28;20036;-79
2023/11/09 05:30:59;;;;;;;0.30;0.30;;;;;;;12.28;75.38;100128.88;5076818;28;20479;-79
2023/11/09 05:33:25;;;;;;;0.32;0.32;;;;;;;12.27;75.38;100127.19;5077899;28;20032;-77
2023/11/09 05:35:51;;;;;;;0.10;0.10;;;;;;;12.30;75.38;100137.69;5081034;28;20028;-78
2023/11/09 05:38:17;;;;;;;9.93;1.13;;;;;;;12.30;75.51;100142.13;5080609;28;20067;-79
2023/11/09 05:40:43;;;;;;;0.10;0.10;;;;;;;12.29;75.30;100135.09;5081094;28;20043;-81
2023/11/09 05:43:11;;;;;;;0.20;0.20;;;;;;;12.22;75.61;100128.28;5080883;28;20028;-79
2023/11/09 05:45:37;;;;;;;0.10;0.10;;;;;;;12.24;75.37;100119.31;5078916;28;20040;-79
2023/11/09 05:48:04;;;;;;;0.30;0.30;;;;;;;12.22;75.89;100129.13;5078575;28;20088;-80
2023/11/09 05:50:31;;;;;;;0.10;0.10;;;;;;;12.22;75.52;100138.91;5077765;28;20032;-80
2023/11/09 05:52:57;;;;;;;0.10;0.10;;;;;;;12.22;75.58;100137.09;5078313;28;20024;-79
2023/11/09 05:55:24;;;;;;;0.10;0.10;;;;;;;12.20;75.14;100152.25;5076857;28;20029;-79
2023/11/09 05:57:51;;;;;;;0.10;0.10;;;;;;;12.09;75.29;100138.50;5076728;28;20025;-79
2023/11/09 06:00:18;;;;;;;0.10;0.10;;;;;;;12.09;75.04;100133.19;5076046;28;20115;-79
2023/11/09 06:02:44;;;;;;;0.10;0.10;;;;;;;12.15;75.18;100138.28;5076010;28;20040;-79
2023/11/09 06:05:10;;;;;;;0.15;0.15;;;;;;;12.07;74.94;100140.34;5077722;28;20029;-79
2023/11/09 06:07:36;;;;;;;0.10;0.10;;;;;;;12.02;74.75;100150.28;5077576;28;20032;-80
2023/11/09 06:10:03;;;;;;;2.25;1.35;;;;;;;11.97;75.26;100161.94;5077651;28;20332;-80
2023/11/09 06:12:29;;;;;;;0.10;0.10;;;;;;;11.93;75.33;100154.97;5078796;28;20037;-80
2023/11/09 06:14:55;;;;;;;0.13;0.13;;;;;;;11.94;75.13;100156.69;5079002;28;20033;-79
2023/11/09 06:17:22;;;;;;;0.17;0.17;;;;;;;11.87;75.24;100163.16;5078986;28;20550;-79
2023/11/09 06:19:48;;;;;;;0.10;0.10;;;;;;;11.90;75.42;100167.47;5078561;28;20521;-80
2023/11/09 06:22:14;;;;;;;0.10;0.10;;;;;;;11.88;75.08;100172.00;5077819;28;20093;-78
2023/11/09 06:24:40;;;;;;;0.10;0.10;;;;;;;11.79;74.86;100165.22;5078681;28;20044;-80
2023/11/09 06:27:08;;;;;;;0.10;0.10;;;;;;;11.77;74.57;100165.25;5075577;28;20049;-80
2023/11/09 06:29:34;;;;;;;0.10;0.10;;;;;;;11.77;74.81;100169.72;5076878;28;20017;-80
2023/11/09 06:32:00;;;;;;;0.10;0.10;;;;;;;11.72;75.18;100169.88;5076080;28;20024;-77
2023/11/09 06:34:27;;;;;;;0.20;0.20;;;;;;;11.69;74.66;100174.41;5082348;28;20025;-77
2023/11/09 06:36:53;;;;;;;0.52;0.52;;;;;;;11.59;74.66;100177.41;5079687;28;20025;-79
2023/11/09 06:39:22;;;;;;;0.10;0.10;;;;;;;11.56;74.63;100180.16;5077396;28;20071;-80
2023/11/09 06:41:48;;;;;;;0.15;0.15;;;;;;;11.48;74.78;100175.13;5075037;28;20040;-80
2023/11/09 06:44:15;;;;;;;0.47;0.47;;;;;;;11.47;74.96;100173.38;5071765;28;20115;-79
2023/11/09 06:46:41;;;;;;;0.10;0.10;;;;;;;11.43;75.10;100171.75;5074470;28;20036;-80
2023/11/09 06:49:08;;;;;;;0.32;0.32;;;;;;;11.42;74.60;100180.63;5068560;28;20029;-79
2023/11/09 06:51:34;;;;;;;0.55;0.55;;;;;;;11.38;75.04;100183.47;5073274;28;20507;-78
2023/11/09 06:54:03;;;;;;;0.13;0.13;;;;;;;11.35;75.16;100180.91;5076655;28;20032;-79
2023/11/09 06:56:32;;;;;;;0.30;0.30;;;;;;;11.34;74.77;100182.69;5074964;28;20032;-79
2023/11/09 06:58:59;;;;;;;0.17;0.17;;;;;;;11.29;74.66;100195.22;5072939;28;20032;-79
2023/11/09 07:01:25;;;;;;;0.10;0.10;;;;;;;11.23;74.52;100201.59;5074977;28;20032;-81
2023/11/09 07:03:51;;;;;;;0.10;0.10;;;;;;;11.17;74.94;100196.50;5076412;28;20032;-81
2023/11/09 07:06:18;;;;;;;0.10;0.10;;;;;;;11.14;75.26;100197.47;5077208;28;20029;-81
2023/11/09 07:08:45;;;;;;;0.10;0.10;;;;;;;11.08;75.54;100202.09;5079836;28;20115;-81
2023/11/09 07:11:11;;;;;;;0.10;0.10;;;;;;;11.10;75.28;100205.56;5070983;28;20032;-81
2023/11/09 07:13:37;;;;;;;0.20;0.20;;;;;;;11.08;75.31;100197.69;5076447;28;20043;-81
2023/11/09 07:16:05;;;;;;;0.17;0.17;;;;;;;11.08;75.03;100196.78;5070625;28;20032;-82
2023/11/09 07:18:31;;;;;;;0.15;0.15;;;;;;;11.06;74.93;100194.19;5064698;28;20400;-82
2023/11/09 07:20:57;;;;;;;0.40;0.40;;;;;;;11.02;75.43;100191.72;5073316;28;20035;-82
2023/11/09 07:23:24;;;;;;;0.20;0.20;;;;;;;11.01;74.77;100196.13;5068538;28;20031;-82
2023/11/09 07:25:51;;;;;;;0.10;0.10;;;;;;;10.99;75.26;100197.97;5072891;28;20039;-82
2023/11/09 07:28:17;;;;;;;0.10;0.10;;;;;;;10.94;75.16;100198.13;5076366;28;20032;-82
2023/11/09 07:30:47;;;;;;;0.20;0.20;;;;;;;10.84;75.87;100201.97;5075394;28;20124;-82
2023/11/09 07:33:14;;;;;;;0.10;0.10;;;;;;;10.96;75.19;100206.03;5072047;28;20070;-81
2023/11/09 07:35:45;;;;;;;0.10;0.10;;;;;;;10.92;75.26;100201.75;5075887;28;20048;-79
2023/11/09 07:38:14;;;;;;;0.20;0.20;;;;;;;10.96;75.20;100203.38;5073574;28;20060;-81
2023/11/09 07:40:42;;;;;;;0.10;0.10;;;;;;;11.05;74.91;100202.22;5070594;28;20123;-81
2023/11/09 07:43:10;;;;;;;0.15;0.15;;;;;;;11.04;75.10;100200.47;5068396;28;20029;-81
2023/11/09 07:45:37;;;;;;;0.20;0.20;;;;;;;11.05;75.67;100202.22;5075060;28;20032;-79
2023/11/09 07:48:04;;;;;;;0.10;0.10;;;;;;;11.05;75.54;100210.16;5071701;28;20029;-81
2023/11/09 07:50:31;;;;;;;0.10;0.10;;;;;;;11.14;75.27;100209.84;5072186;28;20094;-81
2023/11/09 07:52:57;;;;;;;0.10;0.10;;;;;;;11.10;75.95;100208.22;5072567;28;20116;-80
2023/11/09 07:55:23;;;;;;;0.10;0.10;;;;;;;11.16;76.00;100215.97;5065939;28;20043;-78
2023/11/09 07:57:49;;;;;;;0.20;0.20;;;;;;;11.17;76.18;100212.41;5077847;28;20032;-80
2023/11/09 08:00:16;;;;;;;0.10;0.10;;;;;;;11.25;75.74;100217.47;5075025;28;20369;-80
2023/11/09 08:02:43;;;;;;;0.28;0.28;;;;;;;11.23;75.83;100211.38;5076623;28;20036;-81
2023/11/09 08:05:13;;;;;;;0.60;0.60;;;;;;;11.25;76.28;100213.03;5067145;28;20047;-80
2023/11/09 08:07:40;;;;;;;0.63;0.63;;;;;;;11.38;76.06;100215.28;5074528;28;20031;-80
2023/11/09 08:10:09;;;;;;;0.77;0.77;;;;;;;11.43;75.74;100213.34;5073528;28;20032;-81
2023/11/09 08:12:36;;;;;;;0.45;0.45;;;;;;;11.49;75.46;100210.50;5069699;28;20041;-80
2023/11/09 08:15:10;;;;;;;4.28;1.95;;;;;;;11.46;76.27;100214.13;5072432;28;20471;-78
2023/11/09 08:17:41;;;;;;;0.10;0.10;;;;;;;11.51;75.80;100216.59;5072735;28;20031;-78
2023/11/09 08:20:13;;;;;;;0.30;0.30;;;;;;;11.60;76.07;100211.00;5069291;28;20088;-78
2023/11/09 08:22:44;;;;;;;0.20;0.20;;;;;;;11.61;75.80;100211.84;5078304;28;20036;-78
2023/11/09 08:25:12;;;;;;;0.20;0.20;;;;;;;11.66;76.00;100212.53;5078756;28;20024;-79
2023/11/09 08:27:40;;;;;;;0.20;0.20;;;;;;;11.73;76.25;100215.88;5078758;28;20032;-79
2023/11/09 08:30:11;;;;;;;0.10;0.10;;;;;;;11.72;76.12;100208.81;5079708;28;20019;-80
2023/11/09 08:32:38;;;;;;;0.10;0.10;;;;;;;11.78;76.09;100211.25;5077634;28;20771;-80
2023/11/09 08:35:10;;;;;;;0.10;0.10;;;;;;;11.82;75.85;100196.94;5078849;28;20507;-82
2023/11/09 08:37:39;;;;;;;0.20;0.20;;;;;;;11.87;76.04;100205.63;5082439;28;20050;-79
2023/11/09 08:40:17;;;;;;;0.10;0.10;;;;;;;11.86;75.81;100201.22;5081450;28;20693;-79
2023/11/09 08:42:45;;;;;;;0.20;0.20;;;;;;;11.91;76.35;100219.66;5085013;28;20052;-78
2023/11/09 08:45:12;;;;;;;0.17;0.17;;;;;;;11.95;75.66;100216.84;5082206;28;20115;-78
2023/11/09 08:47:38;;;;;;;0.10;0.10;;;;;;;12.03;76.01;100208.63;5081810;28;20043;-80
2023/11/09 08:50:08;;;;;;;0.10;0.10;;;;;;;12.08;75.66;100205.81;5074284;28;20040;-80
2023/11/09 08:52:35;;;;;;;0.10;0.10;;;;;;;12.05;75.66;100205.91;5081962;28;20097;-79
2023/11/09 08:55:04;;;;;;;0.20;0.20;;;;;;;12.10;75.89;100204.81;5076869;28;20028;-83
2023/11/09 08:57:32;;;;;;;7.65;1.58;;;;;;;12.11;75.63;100201.25;5079801;28;20104;-84
2023/11/09 09:00:00;;;;;;;0.10;0.10;;;;;;;12.15;75.69;100204.66;5084222;28;20029;-83
2023/11/09 09:02:29;;;;;;;0.15;0.15;;;;;;;12.24;75.54;100199.00;5081097;28;20028;-84
2023/11/09 09:04:55;;;;;;;0.10;0.10;;;;;;;12.26;75.93;100197.16;5083621;28;20035;-83
2023/11/09 09:07:22;;;;;;;0.13;0.13;;;;;;;12.28;75.20;100189.97;5080433;28;20017;-83
2023/11/09 09:09:48;;;;;;;0.17;0.17;;;;;;;12.27;74.85;100190.94;5082484;28;20043;-80
2023/11/09 09:12:15;;;;;;;0.10;0.10;;;;;;;12.28;74.68;100189.97;5084619;28;20040;-81
2023/11/09 09:14:42;;;;;;;1.95;1.85;;;;;;;12.22;74.57;100192.88;5083483;28;20020;-79
2023/11/09 09:17:10;;;;;;;0.10;0.10;;;;;;;12.24;73.87;100191.03;5074652;28;20032;-80
2023/11/09 09:19:36;;;;;;;0.10;0.10;;;;;;;12.28;74.30;100192.63;5078249;28;20025;-79
2023/11/09 09:22:03;;;;;;;0.65;0.65;;;;;;;12.30;74.00;100185.50;5082489;28;20032;-81
2023/11/09 09:24:30;;;;;;;0.10;0.10;;;;;;;12.35;74.39;100184.44;5080438;28;20519;-80
2023/11/09 09:26:56;;;;;;;0.10;0.10;;;;;;;12.35;73.93;100187.97;5073457;28;20037;-80
2023/11/09 09:29:24;;;;;;;1.20;1.10;;;;;;;12.27;73.17;100185.63;5076619;28;20100;-80
2023/11/09 09:31:50;;;;;;;0.45;0.45;;;;;;;12.31;73.37;100175.72;5073387;28;20131;-80
2023/11/09 09:34:25;;;;;;;0.38;0.38;;;;;;;12.36;73.15;100180.88;5079608;28;20028;-80
2023/11/09 09:36:51;;;;;;;0.85;0.77;;;;;;;12.25;72.43;100168.88;5077411;28;20054;-80
2023/11/09 09:39:17;;;;;;;1.33;1.30;;;;;;;12.23;72.36;100172.50;5080274;28;20032;-79
2023/11/09 09:41:51;;;;;;;0.10;0.10;;;;;;;12.34;72.68;100178.28;5079923;28;20039;-80
2023/11/09 09:44:18;;;;;;;0.10;0.10;;;;;;;12.38;72.45;100176.38;5078235;28;20395;-82
2023/11/09 09:46:45;;;;;;;0.63;0.63;;;;;;;12.38;72.46;100173.72;5081338;28;20043;-82
2023/11/09 09:49:14;;;;;;;0.20;0.20;;;;;;;12.35;71.00;100171.16;5082975;28;20025;-82
2023/11/09 09:51:41;;;;;;;0.10;0.10;;;;;;;12.37;70.94;100174.63;5076236;28;20032;-83
2023/11/09 09:54:08;;;;;;;0.10;0.10;;;;;;;12.48;71.32;100169.78;5082379;28;20051;-82
2023/11/09 09:56:39;;;;;;;0.10;0.10;;;;;;;12.59;70.27;100164.91;5082080;28;20032;-82
2023/11/09 09:59:09;;;;;;;4.38;1.38;;;;;;;12.59;69.87;100174.69;5076312;28;20024;-82
2023/11/09 10:01:40;;;;;;;0.10;0.10;;;;;;;12.71;70.41;100178.63;5082520;28;20040;-82
2023/11/09 10:04:09;;;;;;;0.20;0.20;;;;;;;12.77;70.21;100184.59;5086185;28;20421;-82
2023/11/09 10:06:35;;;;;;;1.05;1.05;;;;;;;12.77;69.50;100178.38;5076533;28;20068;-82
2023/11/09 10:09:05;;;;;;;0.38;0.38;;;;;;;12.86;70.26;100185.13;5074758;28;20044;-82
2023/11/09 10:11:32;;;;;;;0.10;0.10;;;;;;;12.92;69.43;100188.41;5075081;28;20088;-82
2023/11/09 10:14:00;;;;;;;0.10;0.10;;;;;;;12.88;70.43;100186.78;5072455;28;20133;-82
2023/11/09 10:16:33;;;;;;;0.10;0.10;;;;;;;12.90;68.28;100190.25;5071755;28;20391;-80
2023/11/09 10:19:02;;;;;;;1.10;1.10;;;;;;;12.98;67.89;100197.06;5070934;28;20025;-80
2023/11/09 10:21:30;;;;;;;0.15;0.15;;;;;;;12.93;68.43;100199.91;5070911;28;20439;-80
2023/11/09 10:23:59;;;;;;;0.20;0.20;;;;;;;12.97;68.15;100195.34;5073278;28;20028;-80
2023/11/09 10:26:45;;;;;;;0.10;0.10;;;;;;;13.06;67.52;100197.59;5071310;28;20036;-80
2023/11/09 10:29:14;;;;;;;2.35;2.15;;;;;;;12.99;66.86;100206.78;5078715;28;20028;-80
2023/11/09 10:31:42;;;;;;;0.10;0.10;;;;;;;13.02;66.60;100193.34;5082788;28;20165;-81
2023/11/09 10:34:11;;;;;;;0.10;0.10;;;;;;;13.01;67.00;100188.97;5076995;28;20096;-81
2023/11/09 10:36:40;;;;;;;0.28;0.28;;;;;;;13.00;65.70;100195.22;5078224;28;20025;-83
2023/11/09 10:39:22;;;;;;;0.00;0.00;;;;;;;13.00;63.71;100182.78;5080059;28;20051;-79
2023/11/09 10:41:52;;;;;;;0.10;0.10;;;;;;;13.00;64.17;100184.59;5076072;28;20036;-80
2023/11/09 10:44:28;;;;;;;0.85;0.85;;;;;;;13.07;65.10;100186.03;5072133;28;20037;-80
2023/11/09 10:46:55;;;;;;;0.10;0.10;;;;;;;13.01;63.55;100170.34;5063272;28;20036;-77
2023/11/09 10:49:26;;;;;;;0.10;0.10;;;;;;;13.08;64.01;100170.06;5063354;28;20617;-77
2023/11/09 10:51:54;;;;;;;0.10;0.10;;;;;;;13.16;62.78;100160.88;5064971;28;20076;-78
2023/11/09 10:54:24;;;;;;;0.73;0.73;;;;;;;13.14;62.52;100160.94;5075062;28;20031;-76
2023/11/09 10:56:55;;;;;;;0.25;0.25;;;;;;;13.23;63.46;100155.25;5065032;28;20376;-80
2023/11/09 10:59:23;;;;;;;0.00;0.00;;;;;;;13.42;64.51;100141.16;5061021;28;20048;-81
2023/11/09 11:01:53;;;;;;;0.85;0.85;;;;;;;13.33;62.61;100138.88;5076293;28;20020;-78
2023/11/09 11:04:25;;;;;;;0.10;0.10;;;;;;;13.36;63.01;100160.06;5064150;28;20040;-77
2023/11/09 11:06:56;;;;;;;0.35;0.35;;;;;;;13.39;62.55;100149.28;5067063;28;20051;-78
2023/11/09 11:09:28;;;;;;;0.20;0.20;;;;;;;13.32;61.99;100135.38;5065060;28;20036;-79
2023/11/09 11:11:58;;;;;;;0.10;0.10;;;;;;;13.31;62.74;100140.72;5063401;28;20147;-78
2023/11/09 11:14:27;;;;;;;0.10;0.10;;;;;;;13.37;62.79;100136.06;5063832;28;20021;-79
2023/11/09 11:27:57;;;;;;;0.10;0.10;;;;;;;13.45;60.71;100117.09;5082452;28;20196;-80
2023/11/09 11:33:06;;;;;;;2.83;1.55;;;;;;;13.41;60.42;100094.22;5097446;27;20332;-78
2023/11/09 11:41:16;;;;;;;0.22;0.22;;;;;;;13.50;60.10;100085.81;5104054;27;20389;-80
2023/11/09 11:43:50;;;;;;;0.40;0.40;;;;;;;13.59;61.77;100074.78;5088437;28;20036;-80
2023/11/09 11:46:18;;;;;;;0.10;0.10;;;;;;;13.63;59.72;100077.28;5087764;28;20056;-81
2023/11/09 11:48:54;;;;;;;1.75;1.65;;;;;;;13.69;60.56;100077.03;5088334;28;20036;-81
2023/11/09 11:51:22;;;;;;;0.10;0.10;;;;;;;13.57;59.05;100075.75;5081853;28;20024;-81
2023/11/09 11:53:58;;;;;;;0.65;0.65;;;;;;;13.62;59.91;100072.91;5079998;28;20068;-80
2023/11/09 11:56:32;;;;;;;0.10;0.10;;;;;;;13.58;59.34;100065.06;5081533;28;20021;-81